createdAt,value
2018-09-26T00:00:58.644Z,9.60
2018-09-26T00:01:58.548Z,9.63
2018-09-26T00:02:58.476Z,9.59
2018-09-26T00:03:58.423Z,9.55
2018-09-26T00:04:58.314Z,9.70
2018-09-26T00:05:58.227Z,9.58
2018-09-26T00:06:58.146Z,9.67
2018-09-26T00:07:58.057Z,9.71
2018-09-26T00:08:57.980Z,9.73
2018-09-26T00:09:57.909Z,9.68
2018-09-26T00:10:57.862Z,9.58
2018-09-26T00:11:57.729Z,9.70
2018-09-26T00:12:57.659Z,9.77
2018-09-26T00:13:57.646Z,9.68
2018-09-26T00:14:57.511Z,9.74
2018-09-26T00:15:57.398Z,9.74
2018-09-26T00:16:57.323Z,9.70
2018-09-26T00:17:57.235Z,9.65
2018-09-26T00:20:39.436Z,9.70
2018-09-26T00:23:21.514Z,9.67
2018-09-26T00:24:21.410Z,9.77
2018-09-26T00:25:21.997Z,9.80
2018-09-26T00:26:23.117Z,9.73
2018-09-26T00:27:21.044Z,9.74
2018-09-26T00:28:20.943Z,9.83
2018-09-26T00:29:20.855Z,9.81
2018-09-26T00:30:20.894Z,9.80
2018-09-26T00:31:20.705Z,9.81
2018-09-26T00:32:20.640Z,9.77
2018-09-26T00:33:20.571Z,9.73
2018-09-26T00:34:20.450Z,9.73
2018-09-26T00:35:20.397Z,9.75
2018-09-26T00:36:20.305Z,9.77
2018-09-26T00:37:20.197Z,9.70
2018-09-26T00:38:20.133Z,9.67
2018-09-26T00:39:20.036Z,9.67
2018-09-26T00:40:19.988Z,9.71
2018-09-26T00:41:19.900Z,9.58
2018-09-26T00:42:19.793Z,9.58
2018-09-26T00:43:19.706Z,9.56
2018-09-26T00:44:19.634Z,9.59
2018-09-26T00:45:19.548Z,9.62
2018-09-26T00:46:19.501Z,9.52
2018-09-26T00:47:19.378Z,9.44
2018-09-26T00:48:19.301Z,9.45
2018-09-26T00:49:19.220Z,9.45
2018-09-26T00:50:19.174Z,9.41
2018-09-26T00:51:19.080Z,9.41
2018-09-26T00:52:18.979Z,9.38
2018-09-26T00:53:18.943Z,9.41
2018-09-26T00:56:00.878Z,9.22
2018-09-26T00:57:00.804Z,9.26
2018-09-26T00:58:00.688Z,9.24
2018-09-26T00:59:00.620Z,9.26
2018-09-26T01:00:00.610Z,9.26
2018-09-26T01:01:00.504Z,9.23
2018-09-26T01:02:00.353Z,9.24
2018-09-26T01:03:00.333Z,9.24
2018-09-26T01:04:00.205Z,9.27
2018-09-26T01:05:00.120Z,9.27
2018-09-26T01:06:00.033Z,9.30
2018-09-26T01:06:59.973Z,9.31
2018-09-26T01:07:59.874Z,9.26
2018-09-26T01:08:59.790Z,9.27
2018-09-26T01:09:59.698Z,9.17
2018-09-26T01:10:59.624Z,9.15
2018-09-26T01:11:59.562Z,9.19
2018-09-26T01:12:59.459Z,9.12
2018-09-26T01:13:59.370Z,9.08
2018-09-26T01:16:41.369Z,9.04
2018-09-26T01:17:41.310Z,8.89
2018-09-26T01:18:41.194Z,8.97
2018-09-26T01:19:41.129Z,8.98
2018-09-26T01:20:41.035Z,8.91
2018-09-26T01:21:40.982Z,8.82
2018-09-26T01:22:40.893Z,8.85
2018-09-26T01:23:40.819Z,9.00
2018-09-26T01:24:40.701Z,8.96
2018-09-26T01:25:40.636Z,8.97
2018-09-26T01:26:40.683Z,8.98
2018-09-26T01:27:40.479Z,8.94
2018-09-26T01:28:40.374Z,9.03
2018-09-26T01:29:40.297Z,9.13
2018-09-26T01:30:40.209Z,9.06
2018-09-26T01:31:40.159Z,9.13
2018-09-26T01:32:40.044Z,9.06
2018-09-26T01:35:21.863Z,8.91
2018-09-26T01:36:21.784Z,9.00
2018-09-26T01:37:21.720Z,8.94
2018-09-26T01:38:21.652Z,9.10
2018-09-26T01:39:21.539Z,8.97
2018-09-26T01:40:21.464Z,8.97
2018-09-26T01:41:21.422Z,8.94
2018-09-26T01:42:21.290Z,8.89
2018-09-26T01:43:21.226Z,8.86
2018-09-26T01:44:21.137Z,8.89
2018-09-26T01:45:21.037Z,8.93
2018-09-26T01:46:20.953Z,8.94
2018-09-26T01:47:20.875Z,8.94
2018-09-26T01:48:20.820Z,8.94
2018-09-26T01:49:20.716Z,8.97
2018-09-26T01:50:20.633Z,8.98
2018-09-26T01:51:20.554Z,8.96
2018-09-26T01:54:02.386Z,9.03
2018-09-26T01:55:02.299Z,8.94
2018-09-26T01:56:02.215Z,8.94
2018-09-26T01:57:02.123Z,8.96
2018-09-26T01:58:02.042Z,8.94
2018-09-26T01:59:03.039Z,8.94
2018-09-26T02:00:01.880Z,8.96
2018-09-26T02:01:01.804Z,8.91
2018-09-26T02:02:01.725Z,8.96
2018-09-26T02:03:01.650Z,8.94
2018-09-26T02:04:01.569Z,8.93
2018-09-26T02:05:01.465Z,8.93
2018-09-26T02:06:01.385Z,8.93
2018-09-26T02:07:01.310Z,8.88
2018-09-26T02:08:01.223Z,8.76
2018-09-26T02:09:01.161Z,8.78
2018-09-26T02:10:01.080Z,8.80
2018-09-26T02:11:00.974Z,8.82
2018-09-26T02:12:00.889Z,8.79
2018-09-26T02:13:00.811Z,8.71
2018-09-26T02:14:00.740Z,8.79
2018-09-26T02:15:00.653Z,8.70
2018-09-26T02:16:00.557Z,8.75
2018-09-26T02:17:00.484Z,8.70
2018-09-26T02:18:00.387Z,8.73
2018-09-26T02:19:00.318Z,8.67
2018-09-26T02:20:00.237Z,8.65
2018-09-26T02:21:00.143Z,8.61
2018-09-26T02:22:00.057Z,8.54
2018-09-26T02:22:59.986Z,8.60
2018-09-26T02:23:59.888Z,8.52
2018-09-26T02:24:59.830Z,8.46
2018-09-26T02:25:59.735Z,8.50
2018-09-26T02:26:59.653Z,8.45
2018-09-26T02:27:59.568Z,8.52
2018-09-26T02:28:59.499Z,8.46
2018-09-26T02:29:59.419Z,8.50
2018-09-26T02:30:59.315Z,8.42
2018-09-26T02:31:59.230Z,8.42
2018-09-26T02:32:59.156Z,8.45
2018-09-26T02:33:59.069Z,8.43
2018-09-26T02:35:00.073Z,8.47
2018-09-26T02:35:58.893Z,8.45
2018-09-26T02:36:58.831Z,8.40
2018-09-26T02:37:58.806Z,8.43
2018-09-26T02:38:58.659Z,8.49
2018-09-26T02:39:58.589Z,8.52
2018-09-26T02:40:58.518Z,8.46
2018-09-26T02:41:58.421Z,8.42
2018-09-26T02:42:58.340Z,8.31
2018-09-26T02:43:58.230Z,8.28
2018-09-26T02:44:58.188Z,8.43
2018-09-26T02:45:58.072Z,8.39
2018-09-26T02:46:57.991Z,8.47
2018-09-26T02:47:57.956Z,8.45
2018-09-26T02:48:57.830Z,8.45
2018-09-26T02:49:57.758Z,8.42
2018-09-26T02:50:57.696Z,8.39
2018-09-26T02:51:57.576Z,8.36
2018-09-26T02:52:57.502Z,8.37
2018-09-26T02:53:57.417Z,8.39
2018-09-26T02:54:57.390Z,8.39
2018-09-26T02:55:57.265Z,8.34
2018-09-26T02:56:57.183Z,8.45
2018-09-26T02:57:57.084Z,8.47
2018-09-26T03:00:39.401Z,8.28
2018-09-26T03:01:39.299Z,8.22
2018-09-26T03:02:39.207Z,8.20
2018-09-26T03:05:21.435Z,8.24
2018-09-26T03:06:21.334Z,8.20
2018-09-26T03:07:21.239Z,8.20
2018-09-26T03:10:03.387Z,8.17
2018-09-26T03:11:04.381Z,8.17
2018-09-26T03:12:03.211Z,8.17
2018-09-26T03:14:45.390Z,8.18
2018-09-26T03:17:27.411Z,8.13
2018-09-26T03:20:09.383Z,8.03
2018-09-26T03:21:09.332Z,8.13
2018-09-26T03:22:09.216Z,8.18
2018-09-26T03:23:09.131Z,8.17
2018-09-26T03:24:09.062Z,8.25
2018-09-26T03:25:08.977Z,8.22
2018-09-26T03:26:08.901Z,8.29
2018-09-26T03:29:48.891Z,8.29
2018-09-26T03:30:48.800Z,8.34
2018-09-26T03:31:49.746Z,8.28
2018-09-26T03:32:48.626Z,8.25
2018-09-26T03:33:48.703Z,8.27
2018-09-26T03:34:48.466Z,8.21
2018-09-26T03:35:48.385Z,8.25
2018-09-26T03:36:48.525Z,8.25
2018-09-26T03:43:07.095Z,8.20
2018-09-26T03:44:06.983Z,8.27
2018-09-26T03:45:06.887Z,8.18
2018-09-26T03:46:06.813Z,8.24
2018-09-26T03:47:06.746Z,8.21
2018-09-26T03:48:06.683Z,8.28
2018-09-26T03:49:06.609Z,8.25
2018-09-26T03:50:06.481Z,8.18
2018-09-26T03:51:06.483Z,8.25
2018-09-26T03:52:06.331Z,8.29
2018-09-26T03:53:06.237Z,8.18
2018-09-26T03:55:48.381Z,8.13
2018-09-26T03:56:48.333Z,8.09
2018-09-26T03:57:48.326Z,8.13
2018-09-26T03:58:48.140Z,8.03
2018-09-26T03:59:48.061Z,8.13
2018-09-26T04:00:48.126Z,8.10
2018-09-26T04:01:47.888Z,8.07
2018-09-26T04:02:47.924Z,8.10
2018-09-26T04:03:47.725Z,8.04
2018-09-26T04:07:54.417Z,8.03
2018-09-26T04:08:54.372Z,7.94
2018-09-26T04:09:54.233Z,7.92
2018-09-26T04:10:54.191Z,8.02
2018-09-26T04:11:54.077Z,8.00
2018-09-26T04:12:54.065Z,7.99
2018-09-26T04:13:53.889Z,8.09
2018-09-26T04:16:35.891Z,8.17
2018-09-26T04:17:56.923Z,8.12
2018-09-26T04:18:35.728Z,8.17
2018-09-26T04:19:35.706Z,8.09
2018-09-26T04:20:35.563Z,8.12
2018-09-26T04:21:35.530Z,8.04
2018-09-26T04:22:35.397Z,8.07
2018-09-26T04:23:35.492Z,8.06
2018-09-26T04:24:35.237Z,7.99
2018-09-26T04:25:35.148Z,8.02
2018-09-26T04:26:35.097Z,7.99
2018-09-26T04:27:35.008Z,8.06
2018-09-26T04:28:34.917Z,8.02
2018-09-26T04:29:34.922Z,8.00
2018-09-26T04:30:34.800Z,7.94
2018-09-26T04:31:34.649Z,7.99
2018-09-26T04:32:34.599Z,8.02
2018-09-26T04:33:34.602Z,8.10
2018-09-26T04:34:34.396Z,7.94
2018-09-26T04:35:34.324Z,8.07
2018-09-26T04:36:34.237Z,8.02
2018-09-26T04:37:34.150Z,8.04
2018-09-26T04:38:34.125Z,7.91
2018-09-26T04:39:34.009Z,7.89
2018-09-26T04:40:33.997Z,7.92
2018-09-26T04:43:15.977Z,7.94
2018-09-26T04:44:37.004Z,8.02
2018-09-26T04:45:15.729Z,7.99
2018-09-26T04:47:57.913Z,8.06
2018-09-26T04:48:57.980Z,8.03
2018-09-26T04:49:57.744Z,8.06
2018-09-26T04:50:57.759Z,8.12
2018-09-26T04:51:57.589Z,8.09
2018-09-26T04:52:57.513Z,8.13
2018-09-26T04:53:57.505Z,8.20
2018-09-26T04:54:57.354Z,8.17
2018-09-26T04:55:57.253Z,8.18
2018-09-26T04:56:57.229Z,8.28
2018-09-26T04:57:57.117Z,8.29
2018-09-26T04:58:57.053Z,8.21
2018-09-26T04:59:56.921Z,8.20
2018-09-26T05:00:56.840Z,8.21
2018-09-26T05:01:56.756Z,8.14
2018-09-26T05:02:56.701Z,8.25
2018-09-26T05:03:56.590Z,8.21
2018-09-26T05:04:57.533Z,8.20
2018-09-26T05:05:56.437Z,8.14
2018-09-26T05:08:38.420Z,8.14
2018-09-26T05:09:38.431Z,8.18
2018-09-26T05:10:38.274Z,8.24
2018-09-26T05:11:38.220Z,8.12
2018-09-26T05:12:38.104Z,8.14
2018-09-26T05:13:38.011Z,8.12
2018-09-26T05:14:37.948Z,8.09
2018-09-26T05:15:37.938Z,8.14
2018-09-26T05:16:37.768Z,8.17
2018-09-26T05:19:19.912Z,8.22
2018-09-26T05:20:19.991Z,8.09
2018-09-26T05:21:19.751Z,8.18
2018-09-26T05:22:19.747Z,8.09
2018-09-26T05:23:19.618Z,8.13
2018-09-26T05:24:19.554Z,8.06
2018-09-26T05:25:19.435Z,8.13
2018-09-26T05:26:19.362Z,8.07
2018-09-26T05:27:19.258Z,8.06
2018-09-26T05:30:01.434Z,8.17
2018-09-26T05:31:03.470Z,8.12
2018-09-26T05:32:01.253Z,8.12
2018-09-26T05:33:01.260Z,8.20
2018-09-26T05:34:01.098Z,8.21
2018-09-26T05:36:42.940Z,8.22
2018-09-26T05:37:42.900Z,8.13
2018-09-26T05:38:42.763Z,8.20
2018-09-26T05:39:42.699Z,8.12
2018-09-26T05:40:42.611Z,8.20
2018-09-26T05:41:42.664Z,8.13
2018-09-26T05:42:42.441Z,8.18
2018-09-26T05:45:24.417Z,8.14
2018-09-26T05:46:24.474Z,8.14
2018-09-26T05:47:24.273Z,8.14
2018-09-26T05:51:07.472Z,8.21
2018-09-26T05:52:07.369Z,8.20
2018-09-26T05:53:07.281Z,8.13
2018-09-26T05:54:07.171Z,8.22
2018-09-26T05:57:11.453Z,8.20
2018-09-26T05:58:11.352Z,8.24
2018-09-26T05:59:11.263Z,8.21
2018-09-26T06:01:53.465Z,8.20
2018-09-26T06:02:53.370Z,8.17
2018-09-26T06:03:53.284Z,8.27
2018-09-26T06:04:53.194Z,8.28
2018-09-26T06:05:53.086Z,8.36
2018-09-26T06:06:53.027Z,8.42
2018-09-26T06:07:52.959Z,8.42
2018-09-26T06:08:52.864Z,8.31
2018-09-26T06:09:52.768Z,8.28
2018-09-26T06:12:34.933Z,8.34
2018-09-26T06:15:16.948Z,8.28
2018-09-26T06:16:16.843Z,8.37
2018-09-26T06:17:16.801Z,8.37
2018-09-26T06:18:17.717Z,8.58
2018-09-26T06:19:16.609Z,8.50
2018-09-26T06:20:16.524Z,8.63
2018-09-26T06:21:16.437Z,8.64
2018-09-26T06:24:03.951Z,8.67
2018-09-26T06:25:03.860Z,8.75
2018-09-26T06:26:03.763Z,8.70
2018-09-26T06:28:45.984Z,8.63
2018-09-26T06:30:06.835Z,8.64
2018-09-26T06:30:45.781Z,8.78
2018-09-26T06:31:45.723Z,8.80
2018-09-26T06:34:10.455Z,8.80
2018-09-26T06:36:52.423Z,8.93
2018-09-26T06:37:53.392Z,8.91
2018-09-26T06:38:52.308Z,9.01
2018-09-26T06:39:54.194Z,8.94
2018-09-26T06:40:52.103Z,9.03
2018-09-26T06:41:52.030Z,9.17
2018-09-26T06:42:51.935Z,9.30
2018-09-26T06:43:52.925Z,9.20
2018-09-26T06:44:51.780Z,9.19
2018-09-26T06:45:51.700Z,9.23
2018-09-26T06:49:48.456Z,9.35
2018-09-26T06:50:48.367Z,9.37
2018-09-26T06:51:48.274Z,9.45
2018-09-26T06:52:48.174Z,9.50
2018-09-26T06:53:48.127Z,9.59
2018-09-26T06:54:48.066Z,9.62
2018-09-26T06:55:47.959Z,9.59
2018-09-26T06:56:47.838Z,9.59
2018-09-26T06:57:47.807Z,9.74
2018-09-26T07:00:55.941Z,9.88
2018-09-26T07:03:37.939Z,10.11
2018-09-26T07:04:37.926Z,10.11
2018-09-26T07:05:37.814Z,10.29
2018-09-26T07:06:37.689Z,10.43
2018-09-26T07:07:37.594Z,10.54
2018-09-26T07:08:37.562Z,10.62
2018-09-26T07:09:37.511Z,10.81
2018-09-26T07:10:37.377Z,10.87
2018-09-26T07:11:37.428Z,11.27
2018-09-26T07:12:37.207Z,11.23
2018-09-26T07:13:37.105Z,11.53
2018-09-26T07:14:37.053Z,11.98
2018-09-26T07:15:36.949Z,12.05
2018-09-26T07:16:36.871Z,12.29
2018-09-26T07:17:36.785Z,12.15
2018-09-26T07:18:36.707Z,12.22
2018-09-26T07:19:36.624Z,12.22
2018-09-26T07:20:37.583Z,12.01
2018-09-26T07:21:36.452Z,12.03
2018-09-26T07:22:36.414Z,12.04
2018-09-26T07:23:36.297Z,12.15
2018-09-26T07:24:36.216Z,12.22
2018-09-26T07:25:36.168Z,12.56
2018-09-26T07:28:18.457Z,12.92
2018-09-26T07:31:00.440Z,13.06
2018-09-26T07:32:00.354Z,12.96
2018-09-26T07:33:00.267Z,12.77
2018-09-26T07:34:00.207Z,12.87
2018-09-26T07:35:00.121Z,13.32
2018-09-26T07:36:00.068Z,13.47
2018-09-26T07:36:59.947Z,13.75
2018-09-26T07:37:59.873Z,13.35
2018-09-26T07:38:59.827Z,13.47
2018-09-26T07:39:59.718Z,13.41
2018-09-26T07:40:59.643Z,13.50
2018-09-26T07:43:41.932Z,13.75
2018-09-26T07:44:41.858Z,13.84
2018-09-26T07:45:41.858Z,13.55
2018-09-26T07:48:23.946Z,14.23
2018-09-26T07:49:23.922Z,14.52
2018-09-26T07:50:23.797Z,14.78
2018-09-26T07:51:24.745Z,14.66
2018-09-26T07:52:23.604Z,14.49
2018-09-26T07:53:23.546Z,13.90
2018-09-26T07:54:23.455Z,13.62
2018-09-26T07:57:05.465Z,14.36
2018-09-26T07:58:05.369Z,14.16
2018-09-26T07:59:05.348Z,13.93
2018-09-26T08:00:05.287Z,14.29
2018-09-26T08:01:05.108Z,14.56
2018-09-26T08:02:06.077Z,14.08
2018-09-26T08:03:04.975Z,14.27
2018-09-26T08:04:04.888Z,14.21
2018-09-26T08:05:04.800Z,14.12
2018-09-26T08:06:04.784Z,14.59
2018-09-26T08:07:04.667Z,14.91
2018-09-26T08:08:04.580Z,15.40
2018-09-26T08:09:04.485Z,15.60
2018-09-26T08:10:04.400Z,15.28
2018-09-26T08:11:04.309Z,15.25
2018-09-26T08:12:04.290Z,15.44
2018-09-26T08:13:04.162Z,15.86
2018-09-26T08:15:46.441Z,15.85
2018-09-26T08:16:46.378Z,16.10
2018-09-26T08:17:46.309Z,16.29
2018-09-26T08:18:46.222Z,16.44
2018-09-26T08:19:46.137Z,16.80
2018-09-26T08:20:46.073Z,16.47
2018-09-26T08:21:45.989Z,16.78
2018-09-26T08:22:45.929Z,16.16
2018-09-26T08:23:45.826Z,16.33
2018-09-26T08:26:27.961Z,17.40
2018-09-26T08:27:27.939Z,17.66
2018-09-26T08:28:27.796Z,17.71
2018-09-26T08:31:09.940Z,17.83
2018-09-26T08:32:10.899Z,17.83
2018-09-26T08:33:09.816Z,17.60
2018-09-26T08:34:09.720Z,18.09
2018-09-26T08:35:09.637Z,18.29
2018-09-26T08:36:09.569Z,18.51
2018-09-26T08:37:09.469Z,18.21
2018-09-26T08:38:09.424Z,18.10
2018-09-26T08:39:09.332Z,17.94
2018-09-26T08:40:09.249Z,18.29
2018-09-26T08:41:09.162Z,17.58
2018-09-26T08:43:51.553Z,18.46
2018-09-26T08:44:51.400Z,18.64
2018-09-26T08:45:51.302Z,19.24
2018-09-26T08:46:51.226Z,19.58
2018-09-26T08:47:51.163Z,19.71
2018-09-26T08:48:51.063Z,18.89
2018-09-26T08:49:50.992Z,18.42
2018-09-26T08:50:50.940Z,18.62
2018-09-26T08:51:50.833Z,19.31
2018-09-26T08:52:50.788Z,19.12
2018-09-26T08:53:50.716Z,18.82
2018-09-26T08:54:50.594Z,18.49
2018-09-26T08:55:50.545Z,18.49
2018-09-26T08:56:50.447Z,18.64
2018-09-26T08:57:50.375Z,18.64
2018-09-26T08:58:50.344Z,18.42
2018-09-26T08:59:50.351Z,18.74
2018-09-26T09:00:50.136Z,18.62
2018-09-26T09:01:50.057Z,18.99
2018-09-26T09:04:31.984Z,19.68
2018-09-26T09:05:31.896Z,19.79
2018-09-26T09:06:31.952Z,19.65
2018-09-26T09:07:31.767Z,19.52
2018-09-26T09:08:31.653Z,18.83
2018-09-26T09:09:31.600Z,19.55
2018-09-26T09:10:31.517Z,19.94
2018-09-26T09:11:31.503Z,20.13
2018-09-26T09:12:31.337Z,20.27
2018-09-26T09:13:31.294Z,20.31
2018-09-26T09:14:31.324Z,20.25
2018-09-26T09:17:13.456Z,20.13
2018-09-26T09:18:13.406Z,19.85
2018-09-26T09:19:13.377Z,19.05
2018-09-26T09:20:13.251Z,19.10
2018-09-26T09:21:13.159Z,19.16
2018-09-26T09:23:55.483Z,17.99
2018-09-26T09:24:55.449Z,17.65
2018-09-26T09:25:55.329Z,17.18
2018-09-26T09:26:55.254Z,16.96
2018-09-26T09:27:55.160Z,16.95
2018-09-26T09:30:37.489Z,17.32
2018-09-26T09:31:37.490Z,17.02
2018-09-26T09:32:37.310Z,16.60
2018-09-26T09:33:37.253Z,16.08
2018-09-26T09:34:37.162Z,15.86
2018-09-26T09:35:37.109Z,15.84
2018-09-26T09:36:37.045Z,15.53
2018-09-26T09:37:36.956Z,15.56
2018-09-26T09:38:36.859Z,15.73
2018-09-26T09:41:18.996Z,15.84
2018-09-26T09:42:18.920Z,16.08
2018-09-26T09:43:18.809Z,15.91
2018-09-26T09:44:18.819Z,16.22
2018-09-26T09:45:18.682Z,16.40
2018-09-26T09:46:18.606Z,16.65
2018-09-26T09:47:18.510Z,16.81
2018-09-26T09:48:18.439Z,16.95
2018-09-26T09:49:18.344Z,17.33
2018-09-26T09:50:18.330Z,17.57
2018-09-26T09:51:18.222Z,17.80
2018-09-26T09:52:18.149Z,18.51
2018-09-26T09:53:18.039Z,19.12
2018-09-26T09:56:00.014Z,20.78
2018-09-26T09:56:59.949Z,20.75
2018-09-26T09:57:59.822Z,21.09
2018-09-26T09:58:59.747Z,21.22
2018-09-26T09:59:59.657Z,21.21
2018-09-26T10:00:59.631Z,21.63
2018-09-26T10:01:59.554Z,21.74
2018-09-26T10:02:59.743Z,21.91
2018-09-26T10:03:59.369Z,22.14
2018-09-26T10:04:59.283Z,22.39
2018-09-26T10:05:59.213Z,22.23
2018-09-26T10:06:59.177Z,22.30
2018-09-26T10:07:59.043Z,22.08
2018-09-26T10:08:58.988Z,22.05
2018-09-26T10:09:58.935Z,21.64
2018-09-26T10:12:41.109Z,21.18
2018-09-26T10:13:40.996Z,20.58
2018-09-26T10:14:40.851Z,20.53
2018-09-26T10:15:40.801Z,21.12
2018-09-26T10:16:40.706Z,21.74
2018-09-26T10:17:40.701Z,21.91
2018-09-26T10:18:40.539Z,22.44
2018-09-26T10:19:40.523Z,21.82
2018-09-26T10:20:40.396Z,22.02
2018-09-26T10:21:40.334Z,22.46
2018-09-26T10:22:40.267Z,22.82
2018-09-26T10:23:40.196Z,22.44
2018-09-26T10:24:40.102Z,22.17
2018-09-26T10:25:40.017Z,22.17
2018-09-26T10:26:39.935Z,22.30
2018-09-26T10:27:40.900Z,22.20
2018-09-26T10:28:39.830Z,22.76
2018-09-26T10:29:39.728Z,23.32
2018-09-26T10:30:39.658Z,23.18
2018-09-26T10:33:21.531Z,23.04
2018-09-26T10:36:03.499Z,23.29
2018-09-26T10:38:45.510Z,23.25
2018-09-26T10:39:45.496Z,23.25
2018-09-26T10:40:45.428Z,23.50
2018-09-26T10:43:27.527Z,22.74
2018-09-26T10:44:27.422Z,22.70
2018-09-26T10:45:27.343Z,22.94
2018-09-26T10:46:27.426Z,23.18
2018-09-26T10:47:27.210Z,22.85
2018-09-26T10:48:28.159Z,22.41
2018-09-26T10:49:27.271Z,22.45
2018-09-26T10:50:27.013Z,22.49
2018-09-26T10:51:26.913Z,23.18
2018-09-26T10:54:09.070Z,23.26
2018-09-26T10:55:08.928Z,23.77
2018-09-26T10:56:09.008Z,23.60
2018-09-26T10:57:08.817Z,22.86
2018-09-26T10:58:08.723Z,21.99
2018-09-26T10:59:09.819Z,21.85
2018-09-26T11:00:08.577Z,22.29
2018-09-26T11:01:08.519Z,22.63
2018-09-26T11:02:08.557Z,22.64
2018-09-26T11:03:08.376Z,22.57
2018-09-26T11:04:08.351Z,22.75
2018-09-26T11:05:08.220Z,22.97
2018-09-26T11:06:08.160Z,23.54
2018-09-26T11:07:08.077Z,23.25
2018-09-26T11:08:08.037Z,22.29
2018-09-26T11:09:07.965Z,21.83
2018-09-26T11:10:07.892Z,22.02
2018-09-26T11:11:07.823Z,22.69
2018-09-26T11:12:07.728Z,23.15
2018-09-26T11:13:07.658Z,23.64
2018-09-26T11:14:07.637Z,23.69
2018-09-26T11:15:07.547Z,23.47
2018-09-26T11:16:07.485Z,23.45
2018-09-26T11:17:07.373Z,23.22
2018-09-26T11:18:07.277Z,23.52
2018-09-26T11:19:08.232Z,23.68
2018-09-26T11:20:07.165Z,23.14
2018-09-26T11:21:07.091Z,23.56
2018-09-26T11:22:07.031Z,23.96
2018-09-26T11:24:49.064Z,23.74
2018-09-26T11:25:48.946Z,23.77
2018-09-26T11:26:48.876Z,23.92
2018-09-26T11:29:31.040Z,23.94
2018-09-26T11:32:13.049Z,23.71
2018-09-26T11:34:55.064Z,24.11
2018-09-26T11:35:54.965Z,23.12
2018-09-26T11:36:54.882Z,23.56
2018-09-26T11:37:54.814Z,22.81
2018-09-26T11:38:54.754Z,22.19
2018-09-26T11:39:55.705Z,22.27
2018-09-26T11:40:54.734Z,23.04
2018-09-26T11:41:54.558Z,23.16
2018-09-26T11:42:54.452Z,22.57
2018-09-26T11:43:54.400Z,22.41
2018-09-26T11:44:54.386Z,23.22
2018-09-26T11:45:54.293Z,23.42
2018-09-26T11:46:54.182Z,23.31
2018-09-26T11:47:54.108Z,23.38
2018-09-26T11:48:54.027Z,23.00
2018-09-26T11:51:36.075Z,22.20
2018-09-26T11:52:35.966Z,22.27
2018-09-26T11:53:35.903Z,22.36
2018-09-26T11:56:18.362Z,22.88
2018-09-26T11:57:18.028Z,23.03
2018-09-26T11:58:17.946Z,22.88
2018-09-26T11:59:17.838Z,22.88
2018-09-26T12:00:17.771Z,22.79
2018-09-26T12:01:17.721Z,23.14
2018-09-26T12:02:17.715Z,22.99
2018-09-26T12:03:17.567Z,22.76
2018-09-26T12:04:17.465Z,22.89
2018-09-26T12:05:17.389Z,22.76
2018-09-26T12:06:17.397Z,22.15
2018-09-26T12:07:17.312Z,21.21
2018-09-26T12:08:17.183Z,20.57
2018-09-26T12:09:17.072Z,19.95
2018-09-26T12:10:17.030Z,19.24
2018-09-26T12:11:16.972Z,18.99
2018-09-26T12:12:16.923Z,19.07
2018-09-26T12:13:16.863Z,18.74
2018-09-26T12:14:16.707Z,18.83
2018-09-26T12:15:16.640Z,18.84
2018-09-26T12:16:16.696Z,18.90
2018-09-26T12:18:58.563Z,19.17
2018-09-26T12:19:58.581Z,18.97
2018-09-26T12:20:58.383Z,19.01
2018-09-26T12:21:58.323Z,19.07
2018-09-26T12:22:58.221Z,18.99
2018-09-26T12:23:59.165Z,19.07
2018-09-26T12:24:58.082Z,19.15
2018-09-26T12:25:59.020Z,19.16
2018-09-26T12:26:57.920Z,19.15
2018-09-26T12:27:57.875Z,19.27
2018-09-26T12:28:57.755Z,19.32
2018-09-26T12:29:57.688Z,19.28
2018-09-26T12:30:57.595Z,19.34
2018-09-26T12:31:57.537Z,19.30
2018-09-26T12:32:57.433Z,19.31
2018-09-26T12:33:57.383Z,19.12
2018-09-26T12:34:57.439Z,19.16
2018-09-26T12:35:57.200Z,19.15
2018-09-26T12:36:57.138Z,19.23
2018-09-26T12:37:57.050Z,19.31
2018-09-26T12:38:56.956Z,19.28
2018-09-26T12:39:56.898Z,19.25
2018-09-26T12:40:56.819Z,19.27
2018-09-26T12:41:56.762Z,19.17
2018-09-26T12:42:56.654Z,19.16
2018-09-26T12:43:56.593Z,19.16
2018-09-26T12:44:56.509Z,19.34
2018-09-26T12:45:56.447Z,19.31
2018-09-26T12:46:56.322Z,19.40
2018-09-26T12:47:56.271Z,19.42
2018-09-26T12:48:56.182Z,19.32
2018-09-26T12:49:56.107Z,19.05
2018-09-26T12:50:56.023Z,19.15
2018-09-26T12:51:55.960Z,19.07
2018-09-26T12:52:55.996Z,18.89
2018-09-26T12:53:55.968Z,18.93
2018-09-26T12:54:55.703Z,18.87
2018-09-26T12:55:55.743Z,18.99
2018-09-26T12:56:55.591Z,19.06
2018-09-26T12:57:55.491Z,19.25
2018-09-26T12:58:55.417Z,19.30
2018-09-26T12:59:55.300Z,19.43
2018-09-26T13:00:55.250Z,19.55
2018-09-26T13:01:55.148Z,19.30
2018-09-26T13:02:55.061Z,19.20
2018-09-26T13:03:55.015Z,19.15
2018-09-26T13:04:54.910Z,19.07
2018-09-26T13:05:54.826Z,19.10
2018-09-26T13:06:54.751Z,19.12
2018-09-26T13:07:54.704Z,19.05
2018-09-26T13:08:54.583Z,18.99
2018-09-26T13:09:54.512Z,19.09
2018-09-26T13:10:54.432Z,19.17
2018-09-26T13:13:36.572Z,19.15
2018-09-26T13:14:36.469Z,19.13
2018-09-26T13:15:36.402Z,19.15
2018-09-26T13:18:18.626Z,19.15
2018-09-26T13:19:18.504Z,19.12
2018-09-26T13:20:18.422Z,19.12
2018-09-26T13:21:18.325Z,19.12
2018-09-26T13:22:18.259Z,19.09
2018-09-26T13:23:18.200Z,19.09
2018-09-26T13:24:18.122Z,19.12
2018-09-26T13:25:18.065Z,19.05
2018-09-26T13:26:17.989Z,19.13
2018-09-26T13:27:17.855Z,19.16
2018-09-26T13:28:17.820Z,19.23
2018-09-26T13:29:17.708Z,19.21
2018-09-26T13:30:17.661Z,19.10
2018-09-26T13:31:17.619Z,19.13
2018-09-26T13:32:17.483Z,19.25
2018-09-26T13:34:59.604Z,19.38
2018-09-26T13:35:59.479Z,19.43
2018-09-26T13:36:59.401Z,19.43
2018-09-26T13:37:59.512Z,19.28
2018-09-26T13:38:59.325Z,19.24
2018-09-26T13:41:41.059Z,19.35
2018-09-26T13:44:23.150Z,19.31
2018-09-26T13:45:22.985Z,19.12
2018-09-26T13:46:23.012Z,19.15
2018-09-26T13:47:22.828Z,19.12
2018-09-26T13:48:22.848Z,19.13
2018-09-26T13:49:22.687Z,19.24
2018-09-26T13:50:22.632Z,19.30
2018-09-26T13:51:22.547Z,19.32
2018-09-26T13:52:22.499Z,19.27
2018-09-26T13:53:22.363Z,19.40
2018-09-26T13:54:22.288Z,19.45
2018-09-26T13:55:22.200Z,19.50
2018-09-26T13:56:22.179Z,19.55
2018-09-26T13:57:22.043Z,19.47
2018-09-26T13:58:22.028Z,19.57
2018-09-26T13:59:21.867Z,19.50
2018-09-26T14:00:21.842Z,19.43
2018-09-26T14:03:04.064Z,19.50
2018-09-26T14:04:04.021Z,19.50
2018-09-26T14:05:04.020Z,19.53
2018-09-26T14:06:03.876Z,19.67
2018-09-26T14:07:03.759Z,19.53
2018-09-26T14:08:03.686Z,19.57
2018-09-26T14:09:03.593Z,19.58
2018-09-26T14:10:03.519Z,19.45
2018-09-26T14:11:03.477Z,19.34
2018-09-26T14:12:03.380Z,19.34
2018-09-26T14:13:03.293Z,19.30
2018-09-26T14:14:03.205Z,19.34
2018-09-26T14:15:03.126Z,19.32
2018-09-26T14:16:03.091Z,19.35
2018-09-26T14:17:02.963Z,19.34
2018-09-26T14:18:02.984Z,19.32
2018-09-26T14:19:02.798Z,19.34
2018-09-26T14:21:45.106Z,19.45
2018-09-26T14:22:45.080Z,19.42
2018-09-26T14:23:44.928Z,19.43
2018-09-26T14:24:44.849Z,19.49
2018-09-26T14:25:44.786Z,19.53
2018-09-26T14:26:44.709Z,19.62
2018-09-26T14:27:44.621Z,19.55
2018-09-26T14:28:44.554Z,19.50
2018-09-26T14:29:44.454Z,19.47
2018-09-26T14:32:26.669Z,19.39
2018-09-26T14:33:26.584Z,19.40
2018-09-26T14:34:26.435Z,19.40
2018-09-26T14:35:26.428Z,19.47
2018-09-26T14:36:26.290Z,19.57
2018-09-26T14:37:26.190Z,19.52
2018-09-26T14:38:26.196Z,19.49
2018-09-26T14:39:26.090Z,19.40
2018-09-26T14:40:25.969Z,19.52
2018-09-26T14:41:25.956Z,19.53
2018-09-26T14:42:25.784Z,19.57
2018-09-26T14:43:25.707Z,19.57
2018-09-26T14:44:25.746Z,19.57
2018-09-26T14:45:25.695Z,19.57
2018-09-26T14:46:25.596Z,19.57
2018-09-26T14:47:25.470Z,19.65
2018-09-26T14:48:25.330Z,19.64
2018-09-26T14:49:25.472Z,19.62
2018-09-26T14:50:25.231Z,19.65
2018-09-26T14:51:25.082Z,19.68
2018-09-26T14:52:25.019Z,19.60
2018-09-26T14:53:25.039Z,19.64
2018-09-26T14:54:24.860Z,19.70
2018-09-26T14:57:07.091Z,19.71
2018-09-26T14:58:07.152Z,19.62
2018-09-26T14:59:06.978Z,19.57
2018-09-26T15:00:06.903Z,19.61
2018-09-26T15:01:06.769Z,19.60
2018-09-26T15:02:06.756Z,19.61
2018-09-26T15:03:06.653Z,19.61
2018-09-26T15:04:06.564Z,19.62
2018-09-26T15:05:06.448Z,19.64
2018-09-26T15:06:06.401Z,19.64
2018-09-26T15:07:06.307Z,19.62
2018-09-26T15:08:06.300Z,19.58
2018-09-26T15:09:06.138Z,19.60
2018-09-26T15:10:06.090Z,19.57
2018-09-26T15:11:05.970Z,19.58
2018-09-26T15:12:05.901Z,19.58
2018-09-26T15:13:05.853Z,19.57
2018-09-26T15:14:05.781Z,19.62
2018-09-26T15:15:05.674Z,19.58
2018-09-26T15:16:05.595Z,19.60
2018-09-26T15:17:05.499Z,19.58